Nisshoumaru — JD3093 — position and weather

sailwx.info

Track history (hours):
 
Tides and Currents Weather Stations Pressure Air Temp Water Temp Dewpoint Dewpoint Depression Visibility Wind Speed Wind Dir Waves Ship Positions

Nisshoumaru

Last reported at 2016-Aug-27 00:28 UTC. Time now 2016-Aug-27 01:17 UTC.
Position N 34°15' E 135°07'.

Length 76 m; draft 4 m.

Type: Cargo ship. MMSI: 431001549.

Date/timePositionNaut miles runAvg speedWind from/ knotsBaromVisibWave heightAir tempDewpointWater temp
2016-Aug-27 00:28N 34°15' E 135°07'0 0.1
2016-Aug-26 23:25N 34°14' E 135°07'0 0.1
2016-Aug-26 22:31N 34°15' E 135°07'0 0.0
2016-Aug-26 21:31N 34°15' E 135°07'0 0.1
2016-Aug-26 20:33N 34°15' E 135°07'1 1.4
2016-Aug-26 19:32N 34°15' E 135°05'0 0.0
2016-Aug-26 18:29N 34°15' E 135°05'0 0.1
2016-Aug-26 17:32N 34°15' E 135°05'0 0.0
2016-Aug-26 16:32N 34°15' E 135°05'0 0.0
2016-Aug-26 15:32N 34°15' E 135°05'0 0.0
2016-Aug-26 14:32N 34°15' E 135°05'226 9.7
2016-Aug-25 15:18N 34°51' E 139°36'911.2
2016-Aug-25 14:33N 34°51' E 139°47'1311.7
2016-Aug-25 13:26N 34°55' E 140°02'1112.1
2016-Aug-25 12:33N 35°02' E 140°12'1211.4
2016-Aug-25 11:31N 35°08' E 140°24'1212.1
2016-Aug-25 10:33N 35°18' E 140°33'1212.1
2016-Aug-25 09:33N 35°27' E 140°42'1812.5
2016-Aug-25 08:05N 35°43' E 140°54'1012.3
2016-Aug-25 07:18N 35°51' E 140°49'7 8.4
2016-Aug-25 06:25N 35°56' E 140°42'2 1.0
2016-Aug-25 04:34N 35°56' E 140°40'0 0.0
2016-Aug-25 03:22N 35°56' E 140°40'0 0.0
2016-Aug-25 02:19N 35°56' E 140°40'0 0.1
2016-Aug-25 01:22N 35°56' E 140°40'0 0.0
2016-Aug-25 00:21N 35°56' E 140°40'0 0.0
2016-Aug-24 23:21N 35°56' E 140°40'0 0.0
2016-Aug-24 22:18N 35°56' E 140°40'0 0.0
2016-Aug-24 21:33N 35°56' E 140°40'0 0.1
2016-Aug-24 20:34N 35°56' E 140°40'0 0.1
2016-Aug-24 19:26N 35°56' E 140°40'0 0.0
2016-Aug-24 18:20N 35°56' E 140°40'0 0.0
2016-Aug-24 17:26N 35°56' E 140°40'0 0.0
2016-Aug-24 16:23N 35°56' E 140°40'0 0.0
2016-Aug-24 15:11N 35°56' E 140°40'0 0.0
2016-Aug-24 14:05N 35°56' E 140°40'0 0.0
2016-Aug-24 13:29N 35°56' E 140°40'0 0.0
2016-Aug-24 12:32N 35°56' E 140°40'0 0.0
2016-Aug-24 11:29N 35°56' E 140°40'0 0.0
2016-Aug-24 10:26N 35°56' E 140°40'0 0.0
2016-Aug-24 09:26N 35°56' E 140°40'0 0.0
2016-Aug-24 08:26N 35°56' E 140°40'0 0.2
2016-Aug-24 07:11N 35°56' E 140°40'0 0.0
2016-Aug-23 22:29N 35°56' E 140°40'0 0.2
2016-Aug-23 20:33N 35°55' E 140°40'24 7.9
2016-Aug-23 17:30N 35°32' E 140°47'1212.7
2016-Aug-23 16:33N 35°22' E 140°39'1211.7
2016-Aug-23 15:30N 35°12' E 140°30'1413.2
2016-Aug-23 14:26N 35°03' E 140°17'1213.6
2016-Aug-23 13:32N 34°56' E 140°05'25410.5
2016-Aug-22 13:22N 34°11' E 135°02'1112.0
2016-Aug-22 12:27N 34°21' E 135°06'4 0.6
2016-Aug-22 05:26N 34°25' E 135°09'0 0.0
2016-Aug-21 20:32N 34°25' E 135°09'0 0.0
2016-Aug-21 19:32N 34°25' E 135°09'0 0.0
2016-Aug-21 18:08N 34°25' E 135°09'5 7.1
2016-Aug-21 17:25N 34°29' E 135°06'1011.1
2016-Aug-21 16:30N 34°36' E 134°58'  
2016-Aug-18 10:32N 34°38' E 135°01'1412.5
2016-Aug-18 09:26N 34°24' E 135°02'1213.5
2016-Aug-18 08:34N 34°12' E 134°60'  
Track history (hours):
 
Tides and Currents Weather Stations Pressure Air Temp Water Temp Dewpoint Dewpoint Depression Visibility Wind Speed Wind Dir Waves Ship Positions

Nisshoumaru

Last reported at 2016-Aug-27 00:28 UTC. Time now 2016-Aug-27 01:17 UTC.
Position N 34°15' E 135°07'.

Length 76 m; draft 4 m.

Type: Cargo ship. MMSI: 431001549.

Date/timePositionNaut miles runAvg speedWind from/ knotsBaromVisibWave heightAir tempDewpointWater temp
2016-Aug-27 00:28N 34°15' E 135°07'0 0.1
2016-Aug-26 23:25N 34°14' E 135°07'0 0.1
2016-Aug-26 22:31N 34°15' E 135°07'0 0.0
2016-Aug-26 21:31N 34°15' E 135°07'0 0.1
2016-Aug-26 20:33N 34°15' E 135°07'1 1.4
2016-Aug-26 19:32N 34°15' E 135°05'0 0.0
2016-Aug-26 18:29N 34°15' E 135°05'0 0.1
2016-Aug-26 17:32N 34°15' E 135°05'0 0.0
2016-Aug-26 16:32N 34°15' E 135°05'0 0.0
2016-Aug-26 15:32N 34°15' E 135°05'0 0.0
2016-Aug-26 14:32N 34°15' E 135°05'226 9.7
2016-Aug-25 15:18N 34°51' E 139°36'911.2
2016-Aug-25 14:33N 34°51' E 139°47'1311.7
2016-Aug-25 13:26N 34°55' E 140°02'1112.1
2016-Aug-25 12:33N 35°02' E 140°12'1211.4
2016-Aug-25 11:31N 35°08' E 140°24'1212.1
2016-Aug-25 10:33N 35°18' E 140°33'1212.1
2016-Aug-25 09:33N 35°27' E 140°42'1812.5
2016-Aug-25 08:05N 35°43' E 140°54'1012.3
2016-Aug-25 07:18N 35°51' E 140°49'7 8.4
2016-Aug-25 06:25N 35°56' E 140°42'2 1.0
2016-Aug-25 04:34N 35°56' E 140°40'0 0.0
2016-Aug-25 03:22N 35°56' E 140°40'0 0.0
2016-Aug-25 02:19N 35°56' E 140°40'0 0.1
2016-Aug-25 01:22N 35°56' E 140°40'0 0.0
2016-Aug-25 00:21N 35°56' E 140°40'0 0.0
2016-Aug-24 23:21N 35°56' E 140°40'0 0.0
2016-Aug-24 22:18N 35°56' E 140°40'0 0.0
2016-Aug-24 21:33N 35°56' E 140°40'0 0.1
2016-Aug-24 20:34N 35°56' E 140°40'0 0.1
2016-Aug-24 19:26N 35°56' E 140°40'0 0.0
2016-Aug-24 18:20N 35°56' E 140°40'0 0.0
2016-Aug-24 17:26N 35°56' E 140°40'0 0.0
2016-Aug-24 16:23N 35°56' E 140°40'0 0.0
2016-Aug-24 15:11N 35°56' E 140°40'0 0.0
2016-Aug-24 14:05N 35°56' E 140°40'0 0.0
2016-Aug-24 13:29N 35°56' E 140°40'0 0.0
2016-Aug-24 12:32N 35°56' E 140°40'0 0.0
2016-Aug-24 11:29N 35°56' E 140°40'0 0.0
2016-Aug-24 10:26N 35°56' E 140°40'0 0.0
2016-Aug-24 09:26N 35°56' E 140°40'0 0.0
2016-Aug-24 08:26N 35°56' E 140°40'0 0.2
2016-Aug-24 07:11N 35°56' E 140°40'0 0.0
2016-Aug-23 22:29N 35°56' E 140°40'0 0.2
2016-Aug-23 20:33N 35°55' E 140°40'24 7.9
2016-Aug-23 17:30N 35°32' E 140°47'1212.7
2016-Aug-23 16:33N 35°22' E 140°39'1211.7
2016-Aug-23 15:30N 35°12' E 140°30'1413.2
2016-Aug-23 14:26N 35°03' E 140°17'1213.6
2016-Aug-23 13:32N 34°56' E 140°05'25410.5
2016-Aug-22 13:22N 34°11' E 135°02'1112.0
2016-Aug-22 12:27N 34°21' E 135°06'4 0.6
2016-Aug-22 05:26N 34°25' E 135°09'0 0.0
2016-Aug-21 20:32N 34°25' E 135°09'0 0.0
2016-Aug-21 19:32N 34°25' E 135°09'0 0.0
2016-Aug-21 18:08N 34°25' E 135°09'5 7.1
2016-Aug-21 17:25N 34°29' E 135°06'1011.1
2016-Aug-21 16:30N 34°36' E 134°58'  
2016-Aug-18 10:32N 34°38' E 135°01'1412.5
2016-Aug-18 09:26N 34°24' E 135°02'1213.5
2016-Aug-18 08:34N 34°12' E 134°60'  

Dump ship's entire track history